createdAt,value
2023-01-25T00:01:55.979Z,0.08
2023-01-25T00:04:23.594Z,0.04
2023-01-25T00:06:50.943Z,0.01
2023-01-25T00:09:18.359Z,-0.03
2023-01-25T00:11:45.500Z,-0.05
2023-01-25T00:14:13.293Z,-0.07
2023-01-25T00:16:40.477Z,-0.07
2023-01-25T00:19:08.198Z,-0.06
2023-01-25T00:21:35.440Z,-0.06
2023-01-25T00:24:02.947Z,-0.06
2023-01-25T00:26:35.920Z,-0.06
2023-01-25T00:29:03.552Z,-0.07
2023-01-25T00:31:59.049Z,-0.09
2023-01-25T00:34:25.719Z,-0.09
2023-01-25T00:36:55.424Z,-0.09
2023-01-25T00:39:21.919Z,-0.09
2023-01-25T00:41:48.543Z,-0.09
2023-01-25T00:44:15.321Z,-0.08
2023-01-25T00:46:41.998Z,-0.07
2023-01-25T00:49:20.059Z,-0.08
2023-01-25T00:51:46.581Z,-0.08
2023-01-25T00:54:13.132Z,-0.09
2023-01-25T00:56:39.719Z,-0.11
2023-01-25T00:59:06.730Z,-0.13
2023-01-25T01:01:35.074Z,-0.16
2023-01-25T01:04:01.651Z,-0.16
2023-01-25T01:06:28.193Z,-0.15
2023-01-25T01:08:54.785Z,-0.14
2023-01-25T01:11:21.310Z,-0.14
2023-01-25T01:13:47.862Z,-0.15
2023-01-25T01:16:14.706Z,-0.15
2023-01-25T01:18:43.627Z,-0.15
2023-01-25T01:21:12.408Z,-0.17
2023-01-25T01:23:39.325Z,-0.17
2023-01-25T01:26:08.828Z,-0.18
2023-01-25T01:28:36.642Z,-0.19
2023-01-25T01:31:05.187Z,-0.18
2023-01-25T01:33:31.671Z,-0.19
2023-01-25T01:35:58.520Z,-0.21
2023-01-25T01:38:25.471Z,-0.23
2023-01-25T01:40:52.004Z,-0.25
2023-01-25T01:43:23.050Z,-0.28
2023-01-25T01:45:49.615Z,-0.31
2023-01-25T01:48:27.906Z,-0.33
2023-01-25T01:51:19.485Z,-0.34
2023-01-25T01:54:01.920Z,-0.35
2023-01-25T01:56:44.666Z,-0.36
2023-01-25T01:59:11.687Z,-0.36
2023-01-25T02:01:38.656Z,-0.37
2023-01-25T02:04:06.908Z,-0.39
2023-01-25T02:06:54.226Z,-0.42
2023-01-25T02:09:23.595Z,-0.45
2023-01-25T02:11:52.237Z,-0.49
2023-01-25T02:14:19.752Z,-0.52
2023-01-25T02:16:46.562Z,-0.53
2023-01-25T02:19:36.594Z,-0.54
2023-01-25T02:22:08.637Z,-0.58
2023-01-25T02:24:35.355Z,-0.60
2023-01-25T02:27:02.013Z,-0.61
2023-01-25T02:29:30.045Z,-0.61
2023-01-25T02:32:02.485Z,-0.61
2023-01-25T02:34:29.061Z,-0.60
2023-01-25T02:36:55.599Z,-0.60
2023-01-25T02:39:23.267Z,-0.60
2023-01-25T02:41:49.968Z,-0.61
2023-01-25T02:44:18.126Z,-0.63
2023-01-25T02:46:45.359Z,-0.64
2023-01-25T02:49:12.166Z,-0.66
2023-01-25T02:51:42.053Z,-0.65
2023-01-25T02:54:10.195Z,-0.65
2023-01-25T02:56:37.660Z,-0.67
2023-01-25T02:59:04.233Z,-0.68
2023-01-25T03:01:34.432Z,-0.67
2023-01-25T03:04:01.069Z,-0.68
2023-01-25T03:06:27.617Z,-0.66
2023-01-25T03:08:54.155Z,-0.66
2023-01-25T03:11:20.844Z,-0.65
2023-01-25T03:13:47.349Z,-0.65
2023-01-25T03:16:14.460Z,-0.66
2023-01-25T03:18:41.346Z,-0.67
2023-01-25T03:21:19.356Z,-0.68
2023-01-25T03:23:47.247Z,-0.69
2023-01-25T03:26:16.824Z,-0.68
2023-01-25T03:28:43.803Z,-0.67
2023-01-25T03:31:12.391Z,-0.66
2023-01-25T03:33:39.640Z,-0.65
2023-01-25T03:36:06.832Z,-0.62
2023-01-25T03:38:33.956Z,-0.61
2023-01-25T03:41:00.501Z,-0.60
2023-01-25T03:43:27.029Z,-0.59
2023-01-25T03:45:55.363Z,-0.58
2023-01-25T03:48:22.890Z,-0.58
2023-01-25T03:50:54.665Z,-0.56
2023-01-25T03:53:29.811Z,-0.55
2023-01-25T03:56:07.575Z,-0.54
2023-01-25T03:58:35.157Z,-0.54
2023-01-25T04:01:04.108Z,-0.54
2023-01-25T04:03:31.420Z,-0.54
2023-01-25T04:05:59.377Z,-0.54
2023-01-25T04:08:26.622Z,-0.54
2023-01-25T04:11:00.317Z,-0.51
2023-01-25T04:13:27.471Z,-0.48
2023-01-25T04:15:54.218Z,-0.42
2023-01-25T04:18:20.874Z,-0.37
2023-01-25T04:20:56.588Z,-0.32
2023-01-25T04:23:24.789Z,-0.25
2023-01-25T04:26:03.640Z,-0.19
2023-01-25T04:28:30.120Z,-0.11
2023-01-25T04:30:57.312Z,-0.07
2023-01-25T04:33:24.824Z,-0.02
2023-01-25T04:35:51.837Z,0.05
2023-01-25T04:38:18.378Z,0.12
2023-01-25T04:40:45.255Z,0.19
2023-01-25T04:43:16.363Z,0.25
2023-01-25T04:45:43.007Z,0.32
2023-01-25T04:48:11.461Z,0.38
2023-01-25T04:50:38.861Z,0.43
2023-01-25T04:53:06.621Z,0.48
2023-01-25T04:55:33.827Z,0.52
2023-01-25T04:58:01.664Z,0.58
2023-01-25T05:00:28.813Z,0.61
2023-01-25T05:02:55.569Z,0.66
2023-01-25T05:05:22.197Z,0.70
2023-01-25T05:07:48.741Z,0.75
2023-01-25T05:10:15.271Z,0.79
2023-01-25T05:12:41.925Z,0.83
2023-01-25T05:15:09.105Z,0.88
2023-01-25T05:17:35.823Z,0.92
2023-01-25T05:20:02.993Z,0.97
2023-01-25T05:22:29.528Z,1.02
2023-01-25T05:24:56.175Z,1.06
2023-01-25T05:27:22.765Z,1.09
2023-01-25T05:29:49.417Z,1.10
2023-01-25T05:32:21.588Z,1.11
2023-01-25T05:34:48.593Z,1.11
2023-01-25T05:37:18.309Z,1.11
2023-01-25T05:39:45.230Z,1.12
2023-01-25T05:42:14.377Z,1.15
2023-01-25T05:44:41.104Z,1.19
2023-01-25T05:47:12.979Z,1.23
2023-01-25T05:49:39.511Z,1.24
2023-01-25T05:52:06.242Z,1.28
2023-01-25T05:54:32.788Z,1.29
2023-01-25T05:56:59.298Z,1.31
2023-01-25T05:59:25.778Z,1.33
2023-01-25T06:01:53.030Z,1.33
2023-01-25T06:04:19.520Z,1.33
2023-01-25T06:06:46.105Z,1.32
2023-01-25T06:09:13.609Z,1.34
2023-01-25T06:11:42.763Z,1.32
2023-01-25T06:14:09.226Z,1.31
2023-01-25T06:16:35.701Z,1.30
2023-01-25T06:19:02.227Z,1.31
2023-01-25T06:21:28.728Z,1.32
2023-01-25T06:23:55.286Z,1.33
2023-01-25T06:26:21.820Z,1.33
2023-01-25T06:28:48.410Z,1.33
2023-01-25T06:31:19.059Z,1.31
2023-01-25T06:33:52.590Z,1.28
2023-01-25T06:36:21.602Z,1.27
2023-01-25T06:38:52.846Z,1.28
2023-01-25T06:41:20.045Z,1.28
2023-01-25T06:43:47.214Z,1.29
2023-01-25T06:46:13.746Z,1.31
2023-01-25T06:48:40.518Z,1.33
2023-01-25T06:51:10.520Z,1.35
2023-01-25T06:53:39.669Z,1.38
2023-01-25T06:56:09.993Z,1.41
2023-01-25T06:58:37.942Z,1.43
2023-01-25T07:01:07.476Z,1.44
2023-01-25T07:03:34.827Z,1.48
2023-01-25T07:06:03.131Z,1.53
2023-01-25T07:08:30.259Z,1.60
2023-01-25T07:10:58.461Z,1.66
2023-01-25T07:13:26.292Z,1.70
2023-01-25T07:16:00.939Z,1.72
2023-01-25T07:18:29.430Z,1.76
2023-01-25T07:21:02.241Z,1.81
2023-01-25T07:23:31.006Z,1.86
2023-01-25T07:25:57.509Z,1.91
2023-01-25T07:28:23.988Z,1.95
2023-01-25T07:30:50.453Z,1.99
2023-01-25T07:33:17.277Z,2.03
2023-01-25T07:35:43.932Z,2.08
2023-01-25T07:38:10.460Z,2.12
2023-01-25T07:40:36.959Z,2.14
2023-01-25T07:43:03.484Z,2.16
2023-01-25T07:45:30.930Z,2.18
2023-01-25T07:47:59.000Z,2.20
2023-01-25T07:50:28.709Z,2.21
2023-01-25T07:52:55.263Z,2.23
2023-01-25T07:55:24.229Z,2.28
2023-01-25T07:57:57.351Z,2.32
2023-01-25T08:00:25.013Z,2.36
2023-01-25T08:02:52.425Z,2.34
2023-01-25T08:05:19.215Z,2.33
2023-01-25T08:07:47.037Z,2.32
2023-01-25T08:10:14.069Z,2.33
2023-01-25T08:12:44.933Z,2.33
2023-01-25T08:15:12.841Z,2.34
2023-01-25T08:17:39.719Z,2.33
2023-01-25T08:20:07.181Z,2.35
2023-01-25T08:22:33.656Z,2.39
2023-01-25T08:25:00.229Z,2.45
2023-01-25T08:27:28.499Z,2.54
2023-01-25T08:29:55.307Z,2.61
2023-01-25T08:32:21.755Z,2.69
2023-01-25T08:34:48.251Z,2.77
2023-01-25T08:37:14.781Z,2.89
2023-01-25T08:39:41.883Z,3.00
2023-01-25T08:42:08.407Z,3.02
2023-01-25T08:44:34.881Z,3.03
2023-01-25T08:47:01.347Z,3.04
2023-01-25T08:49:27.835Z,3.06
2023-01-25T08:51:54.304Z,3.09
2023-01-25T08:54:20.933Z,3.11
2023-01-25T08:56:47.465Z,3.12
2023-01-25T08:59:14.211Z,3.17
2023-01-25T09:01:43.776Z,3.24
2023-01-25T09:04:10.226Z,3.27
2023-01-25T09:06:36.763Z,3.29
2023-01-25T09:09:03.917Z,3.33
2023-01-25T09:11:30.760Z,3.33
2023-01-25T09:13:57.244Z,3.34
2023-01-25T09:16:25.356Z,3.35
2023-01-25T09:18:52.061Z,3.36
2023-01-25T09:21:19.600Z,3.38
2023-01-25T09:24:05.086Z,3.39
2023-01-25T09:26:34.925Z,3.40
2023-01-25T09:29:01.681Z,3.42
2023-01-25T09:31:28.439Z,3.41
2023-01-25T09:33:55.022Z,3.40
2023-01-25T09:36:21.557Z,3.43
2023-01-25T09:38:48.042Z,3.46
2023-01-25T09:41:44.020Z,3.46
2023-01-25T09:44:29.234Z,3.46
2023-01-25T09:47:04.723Z,3.45
2023-01-25T09:50:05.197Z,3.47
2023-01-25T09:52:53.333Z,3.52
2023-01-25T09:55:24.845Z,3.58
2023-01-25T09:57:52.981Z,3.62
2023-01-25T10:00:22.254Z,3.66
2023-01-25T10:03:02.955Z,3.73
2023-01-25T10:05:36.301Z,3.81
2023-01-25T10:08:34.181Z,3.90
2023-01-25T10:11:20.844Z,3.95
2023-01-25T10:13:47.325Z,3.98
2023-01-25T10:16:25.854Z,4.02
2023-01-25T10:19:23.260Z,4.03
2023-01-25T10:21:56.341Z,4.01
2023-01-25T10:24:38.048Z,4.03
2023-01-25T10:27:23.043Z,4.02
2023-01-25T10:29:52.114Z,4.01
2023-01-25T10:32:30.711Z,3.98
2023-01-25T10:35:01.215Z,3.95
2023-01-25T10:37:30.936Z,3.94
2023-01-25T10:40:12.690Z,3.93
2023-01-25T10:42:41.339Z,3.95
2023-01-25T10:45:15.868Z,3.97
2023-01-25T10:47:54.868Z,3.98
2023-01-25T10:50:57.159Z,3.98
2023-01-25T10:53:27.965Z,4.00
2023-01-25T10:56:06.524Z,3.99
2023-01-25T10:58:40.405Z,4.00
2023-01-25T11:01:34.200Z,4.02
2023-01-25T11:04:01.726Z,4.02
2023-01-25T11:06:48.191Z,4.02
2023-01-25T11:09:36.982Z,4.06
2023-01-25T11:12:05.464Z,4.10
2023-01-25T11:14:33.002Z,4.11
2023-01-25T11:17:02.665Z,4.13
2023-01-25T11:19:34.931Z,4.16
2023-01-25T11:22:04.705Z,4.17
2023-01-25T11:24:33.803Z,4.21
2023-01-25T11:27:23.592Z,4.22
2023-01-25T11:30:05.191Z,4.24
2023-01-25T11:32:32.518Z,4.26
2023-01-25T11:34:59.403Z,4.27
2023-01-25T11:37:46.788Z,4.28
2023-01-25T11:40:49.967Z,4.28
2023-01-25T11:43:19.201Z,4.29
2023-01-25T11:46:06.377Z,4.28
2023-01-25T11:49:10.984Z,4.30
2023-01-25T11:51:42.068Z,4.34
2023-01-25T11:54:30.526Z,4.37
2023-01-25T11:57:23.979Z,4.42
2023-01-25T12:00:18.401Z,4.46
2023-01-25T12:03:03.123Z,4.47
2023-01-25T12:05:59.418Z,4.46
2023-01-25T12:09:10.089Z,4.45
2023-01-25T12:11:51.762Z,4.45
2023-01-25T12:14:45.228Z,4.43
2023-01-25T12:17:27.877Z,4.41
2023-01-25T12:20:10.881Z,4.38
2023-01-25T12:23:15.173Z,4.33
2023-01-25T12:25:44.608Z,4.31
2023-01-25T12:28:19.573Z,4.32
2023-01-25T12:31:25.256Z,4.34
2023-01-25T12:34:04.541Z,4.38
2023-01-25T12:36:40.458Z,4.41
2023-01-25T12:39:21.962Z,4.44
2023-01-25T12:42:24.363Z,4.47
2023-01-25T12:45:25.464Z,4.49
2023-01-25T12:48:18.386Z,4.48
2023-01-25T12:50:54.706Z,4.46
2023-01-25T12:53:40.980Z,4.47
2023-01-25T12:56:21.714Z,4.48
2023-01-25T12:59:06.275Z,4.51
2023-01-25T13:01:39.856Z,4.54
2023-01-25T13:04:43.131Z,4.58
2023-01-25T13:07:34.581Z,4.63
2023-01-25T13:10:10.183Z,4.66
2023-01-25T13:13:00.418Z,4.69
2023-01-25T13:15:47.322Z,4.67
2023-01-25T13:18:29.209Z,4.68
2023-01-25T13:20:57.587Z,4.70
2023-01-25T13:23:41.843Z,4.74
2023-01-25T13:26:23.687Z,4.76
2023-01-25T13:28:53.972Z,4.77
2023-01-25T13:31:50.968Z,4.76
2023-01-25T13:34:36.034Z,4.73
2023-01-25T13:37:30.059Z,4.71
2023-01-25T13:40:30.697Z,4.70
2023-01-25T13:43:03.525Z,4.66
2023-01-25T13:45:34.651Z,4.62
2023-01-25T13:48:18.424Z,4.57
2023-01-25T13:50:59.144Z,4.57
2023-01-25T13:53:27.254Z,4.54
2023-01-25T13:55:56.550Z,4.50
2023-01-25T13:58:31.656Z,4.46
2023-01-25T14:01:00.726Z,4.41
2023-01-25T14:03:36.105Z,4.38
2023-01-25T14:06:03.481Z,4.34
2023-01-25T14:08:31.795Z,4.32
2023-01-25T14:10:59.118Z,4.29
2023-01-25T14:13:25.639Z,4.29
2023-01-25T14:16:00.663Z,4.29
2023-01-25T14:18:33.092Z,4.26
2023-01-25T14:21:21.915Z,4.23
2023-01-25T14:23:49.226Z,4.24
2023-01-25T14:26:19.912Z,4.23
2023-01-25T14:28:59.412Z,4.20
2023-01-25T14:31:34.644Z,4.18
2023-01-25T14:34:02.415Z,4.17
2023-01-25T14:36:30.597Z,4.17
2023-01-25T14:38:57.811Z,4.15
2023-01-25T14:41:43.789Z,4.10
2023-01-25T14:44:15.752Z,4.08
2023-01-25T14:46:42.778Z,4.07
2023-01-25T14:49:12.183Z,4.08
2023-01-25T14:52:10.650Z,4.06
2023-01-25T14:54:58.583Z,4.05
2023-01-25T14:57:37.878Z,4.03
2023-01-25T15:00:22.997Z,4.01
2023-01-25T15:02:57.534Z,3.99
2023-01-25T15:05:27.326Z,3.96
2023-01-25T15:07:55.718Z,3.91
2023-01-25T15:10:25.143Z,3.88
2023-01-25T15:13:18.390Z,3.87
2023-01-25T15:15:58.717Z,3.86
2023-01-25T15:18:53.860Z,3.84
2023-01-25T15:21:24.403Z,3.80
2023-01-25T15:23:51.973Z,3.79
2023-01-25T15:26:21.347Z,3.77
2023-01-25T15:28:51.659Z,3.78
2023-01-25T15:31:20.599Z,3.77
2023-01-25T15:33:47.215Z,3.73
2023-01-25T15:36:14.555Z,3.72
2023-01-25T15:38:41.912Z,3.71
2023-01-25T15:41:08.680Z,3.67
2023-01-25T15:43:35.289Z,3.63
2023-01-25T15:46:02.945Z,3.60
2023-01-25T15:48:35.934Z,3.55
2023-01-25T15:51:02.488Z,3.50
2023-01-25T15:53:29.147Z,3.46
2023-01-25T15:56:26.545Z,3.45
2023-01-25T15:58:55.443Z,3.43
2023-01-25T16:01:24.366Z,3.42
2023-01-25T16:03:51.042Z,3.42
2023-01-25T16:06:31.305Z,3.42
2023-01-25T16:08:59.550Z,3.40
2023-01-25T16:11:29.843Z,3.39
2023-01-25T16:13:56.350Z,3.39
2023-01-25T16:16:25.107Z,3.40
2023-01-25T16:18:51.734Z,3.39
2023-01-25T16:21:18.394Z,3.35
2023-01-25T16:23:44.911Z,3.35
2023-01-25T16:26:20.941Z,3.34
2023-01-25T16:28:49.023Z,3.33
2023-01-25T16:31:30.767Z,3.31
2023-01-25T16:33:58.463Z,3.31
2023-01-25T16:36:28.244Z,3.30
2023-01-25T16:38:54.834Z,3.31
2023-01-25T16:41:21.472Z,3.32
2023-01-25T16:43:49.241Z,3.32
2023-01-25T16:46:22.868Z,3.33
2023-01-25T16:48:51.947Z,3.33
2023-01-25T16:51:27.836Z,3.32
2023-01-25T16:53:57.481Z,3.29
2023-01-25T16:56:32.059Z,3.28
2023-01-25T16:59:02.509Z,3.28
2023-01-25T17:01:29.156Z,3.28
2023-01-25T17:03:56.454Z,3.27
2023-01-25T17:06:26.445Z,3.26
2023-01-25T17:08:56.194Z,3.26
2023-01-25T17:11:23.340Z,3.26
2023-01-25T17:13:56.301Z,3.25
2023-01-25T17:16:25.580Z,3.23
2023-01-25T17:19:02.994Z,3.22
2023-01-25T17:21:29.847Z,3.21
2023-01-25T17:23:57.857Z,3.23
2023-01-25T17:26:25.118Z,3.25
2023-01-25T17:28:52.349Z,3.27
2023-01-25T17:31:20.485Z,3.27
2023-01-25T17:33:47.103Z,3.27
2023-01-25T17:36:15.170Z,3.26
2023-01-25T17:38:42.505Z,3.25
2023-01-25T17:41:11.428Z,3.27
2023-01-25T17:43:38.139Z,3.29
2023-01-25T17:46:22.672Z,3.32
2023-01-25T17:48:49.239Z,3.33
2023-01-25T17:51:15.865Z,3.34
2023-01-25T17:53:43.431Z,3.32
2023-01-25T17:56:12.036Z,3.28
2023-01-25T17:58:40.032Z,3.22
2023-01-25T18:01:24.814Z,3.21
2023-01-25T18:03:53.259Z,3.20
2023-01-25T18:06:23.055Z,3.19
2023-01-25T18:08:51.836Z,3.18
2023-01-25T18:11:21.496Z,3.17
2023-01-25T18:13:53.162Z,3.15
2023-01-25T18:16:20.272Z,3.12
2023-01-25T18:18:47.552Z,3.10
2023-01-25T18:21:17.260Z,3.06
2023-01-25T18:23:47.123Z,3.05
2023-01-25T18:26:21.233Z,3.04
2023-01-25T18:28:48.271Z,3.03
2023-01-25T18:31:15.316Z,3.02
2023-01-25T18:33:41.848Z,3.01
2023-01-25T18:36:08.783Z,3.01
2023-01-25T18:38:35.272Z,3.01
2023-01-25T18:41:04.316Z,3.00
2023-01-25T18:43:30.770Z,2.97
2023-01-25T18:45:58.569Z,2.93
2023-01-25T18:48:26.642Z,2.86
2023-01-25T18:50:53.150Z,2.81
2023-01-25T18:53:20.044Z,2.77
2023-01-25T18:56:01.307Z,2.76
2023-01-25T18:58:30.076Z,2.76
2023-01-25T19:01:02.690Z,2.74
2023-01-25T19:03:29.291Z,2.73
2023-01-25T19:06:00.238Z,2.74
2023-01-25T19:08:27.693Z,2.76
2023-01-25T19:11:02.628Z,2.80
2023-01-25T19:13:32.273Z,2.82
2023-01-25T19:16:04.657Z,2.81
2023-01-25T19:18:36.925Z,2.81
2023-01-25T19:21:08.294Z,2.81
2023-01-25T19:23:40.808Z,2.80
2023-01-25T19:26:10.444Z,2.81
2023-01-25T19:28:37.005Z,2.82
2023-01-25T19:31:12.575Z,2.83
2023-01-25T19:33:39.889Z,2.83
2023-01-25T19:36:08.699Z,2.85
2023-01-25T19:38:41.274Z,2.85
2023-01-25T19:41:12.857Z,2.84
2023-01-25T19:43:39.576Z,2.85
2023-01-25T19:46:12.305Z,2.85
2023-01-25T19:48:39.900Z,2.85
2023-01-25T19:51:21.639Z,2.84
2023-01-25T19:53:53.750Z,2.84
2023-01-25T19:56:20.495Z,2.84
2023-01-25T19:58:48.792Z,2.84
2023-01-25T20:01:20.651Z,2.85
2023-01-25T20:03:47.452Z,2.87
2023-01-25T20:06:16.285Z,2.88
2023-01-25T20:08:45.204Z,2.88
2023-01-25T20:11:14.700Z,2.88
2023-01-25T20:13:42.300Z,2.89
2023-01-25T20:16:10.627Z,2.89
2023-01-25T20:18:37.392Z,2.88
2023-01-25T20:21:10.551Z,2.89
2023-01-25T20:23:39.993Z,2.90
2023-01-25T20:26:13.815Z,2.90
2023-01-25T20:28:41.693Z,2.92
2023-01-25T20:31:25.998Z,2.93
2023-01-25T20:33:56.663Z,2.94
2023-01-25T20:36:24.308Z,2.94
2023-01-25T20:38:51.471Z,2.93
2023-01-25T20:41:20.229Z,2.92
2023-01-25T20:43:52.133Z,2.92
2023-01-25T20:46:20.636Z,2.92
2023-01-25T20:48:48.524Z,2.92
2023-01-25T20:51:15.966Z,2.88
2023-01-25T20:53:44.491Z,2.85
2023-01-25T20:56:12.623Z,2.84
2023-01-25T20:58:39.141Z,2.83
2023-01-25T21:01:13.729Z,2.83
2023-01-25T21:03:40.881Z,2.84
2023-01-25T21:06:08.023Z,2.86
2023-01-25T21:08:34.568Z,2.87
2023-01-25T21:11:01.937Z,2.90
2023-01-25T21:13:29.182Z,2.91
2023-01-25T21:16:09.349Z,2.92
2023-01-25T21:18:40.119Z,2.94
2023-01-25T21:21:06.580Z,2.93
2023-01-25T21:23:33.741Z,2.93
2023-01-25T21:26:04.583Z,2.93
2023-01-25T21:28:32.043Z,2.94
2023-01-25T21:30:59.534Z,2.93
2023-01-25T21:33:26.141Z,2.91
2023-01-25T21:35:54.231Z,2.91
2023-01-25T21:38:21.374Z,2.90
2023-01-25T21:40:47.873Z,2.90
2023-01-25T21:43:14.781Z,2.89
2023-01-25T21:45:41.275Z,2.88
2023-01-25T21:48:07.779Z,2.88
2023-01-25T21:50:34.289Z,2.84
2023-01-25T21:53:00.749Z,2.82
2023-01-25T21:55:27.272Z,2.81
2023-01-25T21:57:53.913Z,2.80
2023-01-25T22:00:23.152Z,2.78
2023-01-25T22:02:51.458Z,2.76
2023-01-25T22:05:17.967Z,2.76
2023-01-25T22:07:44.442Z,2.76
2023-01-25T22:10:11.725Z,2.78
2023-01-25T22:12:38.406Z,2.79
2023-01-25T22:15:05.458Z,2.81
2023-01-25T22:17:31.961Z,2.80
2023-01-25T22:19:58.427Z,2.80
2023-01-25T22:22:25.587Z,2.81
2023-01-25T22:24:52.072Z,2.81
2023-01-25T22:27:37.909Z,2.79
2023-01-25T22:30:06.006Z,2.78
2023-01-25T22:32:32.482Z,2.75
2023-01-25T22:34:59.051Z,2.73
2023-01-25T22:37:28.867Z,2.72
2023-01-25T22:39:55.411Z,2.72
2023-01-25T22:42:21.937Z,2.71
2023-01-25T22:44:48.509Z,2.70
2023-01-25T22:47:15.055Z,2.69
2023-01-25T22:49:41.542Z,2.69
2023-01-25T22:52:07.999Z,2.67
2023-01-25T22:54:34.548Z,2.66
2023-01-25T22:57:01.044Z,2.63
2023-01-25T22:59:27.640Z,2.63
2023-01-25T23:01:54.097Z,2.64
2023-01-25T23:04:20.729Z,2.65
2023-01-25T23:06:47.223Z,2.65
2023-01-25T23:09:13.904Z,2.67
2023-01-25T23:11:40.404Z,2.68
2023-01-25T23:14:11.364Z,2.69
2023-01-25T23:16:37.945Z,2.70
2023-01-25T23:19:05.330Z,2.71
2023-01-25T23:21:32.279Z,2.70
2023-01-25T23:24:00.405Z,2.69
2023-01-25T23:26:27.605Z,2.68
2023-01-25T23:28:56.806Z,2.68
2023-01-25T23:31:24.850Z,2.68
2023-01-25T23:33:54.386Z,2.67
2023-01-25T23:36:24.922Z,2.68
2023-01-25T23:38:53.017Z,2.68
2023-01-25T23:41:21.560Z,2.66
2023-01-25T23:43:48.727Z,2.64
2023-01-25T23:46:16.079Z,2.62
2023-01-25T23:48:44.275Z,2.61
2023-01-25T23:51:12.466Z,2.59
2023-01-25T23:53:40.005Z,2.59
2023-01-25T23:56:10.479Z,2.60
2023-01-25T23:58:38.433Z,2.60
